Time;durP1;ratioP1;P1;durP2;ratioP2;P2;SDS_P1;SDS_P2;PMS_P1;PMS_P2;Temp;Humidity;BMP_temperature;BMP_pressure;BME280_temperature;BME280_humidity;BME280_pressure;Samples;Min_cycle;Max_cycle;Signal;HPM_P1;HPM_P2
2021/08/30 00:00:29;;;;;;;5.03;4.63;;;;;;;14.00;91.25;102289.94;6339615;28;20191;-73
2021/08/30 00:03:35;;;;;;;4.90;4.47;;;;;;;14.07;90.74;102296.31;6339272;28;20517;-74
2021/08/30 00:06:41;;;;;;;6.45;4.38;;;;;;;13.92;91.65;102290.94;6340129;28;20183;-74
2021/08/30 00:09:49;;;;;;;4.90;4.50;;;;;;;13.95;91.65;102295.19;6340111;28;20190;-74
2021/08/30 00:12:54;;;;;;;4.68;4.28;;;;;;;13.96;91.34;102299.63;6339969;28;20211;-74
2021/08/30 00:16:02;;;;;;;4.72;4.32;;;;;;;13.98;91.06;102292.03;6338948;28;20183;-74
2021/08/30 00:19:06;;;;;;;5.20;4.68;;;;;;;13.85;92.14;102305.69;6339910;28;20183;-74
2021/08/30 00:22:12;;;;;;;4.53;4.13;;;;;;;13.87;92.33;102295.38;6338793;28;20503;-74
2021/08/30 00:25:18;;;;;;;6.82;4.63;;;;;;;13.93;91.95;102289.06;6339971;28;20187;-73
2021/08/30 00:28:22;;;;;;;5.07;4.32;;;;;;;13.87;92.07;102285.22;6338953;28;20189;-73
2021/08/30 00:31:26;;;;;;;4.93;4.45;;;;;;;13.92;92.03;102287.38;6337229;28;20404;-73
2021/08/30 00:34:31;;;;;;;4.53;4.13;;;;;;;13.78;92.98;102294.69;6338521;28;20186;-73
2021/08/30 00:37:37;;;;;;;5.55;4.90;;;;;;;13.81;92.83;102292.38;6339474;28;20189;-74
2021/08/30 00:40:46;;;;;;;8.23;4.72;;;;;;;13.81;92.67;102303.34;6339699;28;20254;-74
2021/08/30 00:43:54;;;;;;;6.38;4.63;;;;;;;13.85;92.88;102295.56;6339757;28;20182;-74
2021/08/30 00:46:58;;;;;;;5.22;4.55;;;;;;;13.82;93.28;102305.06;6339229;28;20215;-74
2021/08/30 00:50:03;;;;;;;4.80;4.40;;;;;;;13.86;93.18;102299.16;6339179;28;20183;-74
2021/08/30 00:53:09;;;;;;;4.82;4.50;;;;;;;13.82;93.44;102305.06;6337926;28;20211;-74
2021/08/30 00:56:15;;;;;;;5.32;4.82;;;;;;;13.99;92.72;102304.72;6337934;28;20348;-74
2021/08/30 00:59:20;;;;;;;4.78;4.38;;;;;;;13.89;93.10;102309.75;6338949;28;20246;-74
2021/08/30 01:02:26;;;;;;;4.85;4.47;;;;;;;13.90;92.66;102304.03;6339065;28;20210;-74
2021/08/30 01:05:31;;;;;;;5.63;4.50;;;;;;;13.89;92.99;102304.25;6338298;28;20283;-74
2021/08/30 01:08:46;;;;;;;4.88;4.47;;;;;;;13.79;93.30;102305.44;6339157;28;20200;-74
2021/08/30 01:11:58;;;;;;;5.68;4.50;;;;;;;13.97;92.50;102306.81;6337485;28;20536;-74
2021/08/30 01:15:07;;;;;;;4.90;4.40;;;;;;;13.85;93.16;102319.41;6337499;28;20205;-74
2021/08/30 01:18:20;;;;;;;5.25;4.43;;;;;;;13.86;93.23;102304.66;6337419;28;20205;-74
2021/08/30 01:21:28;;;;;;;4.63;4.30;;;;;;;13.85;93.08;102308.44;6338741;28;20186;-74
2021/08/30 01:24:34;;;;;;;5.50;4.80;;;;;;;13.86;93.19;102315.63;6337935;28;20183;-74
2021/08/30 01:27:43;;;;;;;5.07;4.63;;;;;;;13.91;92.86;102302.13;6337203;28;20524;-74
2021/08/30 01:30:52;;;;;;;4.38;4.03;;;;;;;13.96;92.70;102316.09;6338021;28;20182;-74
2021/08/30 01:33:57;;;;;;;4.75;4.35;;;;;;;13.96;92.75;102308.72;6337008;28;20373;-74
2021/08/30 01:37:02;;;;;;;4.32;4.03;;;;;;;13.92;92.81;102299.19;6337973;28;20320;-74
2021/08/30 01:40:09;;;;;;;4.70;4.20;;;;;;;13.89;92.79;102304.25;6336865;28;20497;-74
2021/08/30 01:43:15;;;;;;;4.18;3.83;;;;;;;13.82;93.21;102299.56;6337603;28;20190;-74
2021/08/30 01:46:21;;;;;;;6.78;4.45;;;;;;;13.86;92.63;102299.16;6336743;28;20536;-74
2021/08/30 01:49:30;;;;;;;4.63;4.38;;;;;;;13.97;92.41;102298.59;6337765;28;20254;-74
2021/08/30 01:52:39;;;;;;;5.55;4.43;;;;;;;13.87;93.13;102292.63;6337892;28;20207;-74
2021/08/30 01:55:45;;;;;;;8.75;4.53;;;;;;;13.81;92.89;102297.84;6336493;28;20191;-74
2021/08/30 02:02:15;;;;;;;4.68;4.15;;;;;;;13.82;93.38;102302.31;6337078;28;20398;-74
2021/08/30 02:05:21;;;;;;;4.57;4.20;;;;;;;13.77;93.73;102291.09;6337533;28;20245;-74
2021/08/30 02:08:27;;;;;;;4.70;4.30;;;;;;;13.83;93.10;102292.19;6336528;28;20182;-74
2021/08/30 02:11:33;;;;;;;5.47;4.30;;;;;;;13.80;93.33;102285.22;6336194;28;20239;-74
2021/08/30 02:14:37;;;;;;;5.63;4.22;;;;;;;13.84;93.24;102295.78;6336730;28;20205;-74
2021/08/30 02:17:48;;;;;;;5.32;4.25;;;;;;;13.77;93.55;102291.09;6337743;28;20266;-74
2021/08/30 02:21:02;;;;;;;6.97;4.22;;;;;;;13.63;93.78;102294.84;6337650;28;20228;-74
2021/08/30 02:24:12;;;;;;;4.60;4.00;;;;;;;13.66;93.25;102294.41;6336323;28;20352;-74
2021/08/30 02:27:21;;;;;;;4.15;3.92;;;;;;;13.65;93.59;102287.25;6336686;28;20190;-74
2021/08/30 02:30:30;;;;;;;4.20;3.83;;;;;;;13.62;93.40;102287.63;6337557;28;20285;-74
2021/08/30 02:33:35;;;;;;;4.07;3.78;;;;;;;13.59;92.98;102282.56;6336417;28;20238;-74
2021/08/30 02:36:41;;;;;;;5.57;3.92;;;;;;;13.61;92.85;102285.94;6336160;28;20183;-75
2021/08/30 02:39:49;;;;;;;6.20;4.15;;;;;;;13.53;92.99;102282.53;6337534;28;20218;-74
2021/08/30 02:42:54;;;;;;;4.22;3.85;;;;;;;13.61;92.35;102280.44;6337081;28;20194;-74
2021/08/30 02:46:01;;;;;;;3.97;3.78;;;;;;;13.49;92.65;102282.06;6336535;28;20183;-74
2021/08/30 02:49:06;;;;;;;3.83;3.53;;;;;;;13.50;92.63;102281.03;6337335;28;20183;-74
2021/08/30 02:52:15;;;;;;;4.57;3.50;;;;;;;13.52;92.75;102292.66;6337388;28;20277;-74
2021/08/30 02:55:21;;;;;;;3.78;3.45;;;;;;;13.45;92.53;102286.28;6338701;28;20225;-74
2021/08/30 02:58:27;;;;;;;3.83;3.53;;;;;;;13.45;92.23;102285.44;6340683;28;20205;-74
2021/08/30 03:01:31;;;;;;;3.60;3.40;;;;;;;13.33;93.07;102282.38;6340945;28;20548;-74
2021/08/30 03:04:37;;;;;;;7.00;3.88;;;;;;;13.41;92.19;102279.47;6341371;28;20233;-74
2021/08/30 03:07:43;;;;;;;4.85;3.92;;;;;;;13.34;92.22;102286.81;6341299;28;20449;-74
2021/08/30 03:10:49;;;;;;;4.10;3.72;;;;;;;13.23;93.11;102279.16;6341538;28;20190;-74
2021/08/30 03:13:55;;;;;;;4.30;4.00;;;;;;;13.20;92.97;102276.78;6341234;28;20256;-74
2021/08/30 03:17:02;;;;;;;8.73;3.55;;;;;;;13.28;92.81;102267.56;6340668;28;20187;-74
2021/08/30 03:20:10;;;;;;;3.47;3.28;;;;;;;13.30;92.83;102268.25;6341229;28;20187;-74
2021/08/30 03:23:16;;;;;;;3.72;3.42;;;;;;;13.33;92.04;102270.59;6341491;28;20190;-74
2021/08/30 03:26:23;;;;;;;3.55;3.33;;;;;;;13.25;92.77;102285.25;6340388;28;20183;-74
2021/08/30 03:29:29;;;;;;;3.40;3.30;;;;;;;13.27;92.41;102298.78;6340949;28;20183;-74
2021/08/30 03:32:34;;;;;;;3.80;3.40;;;;;;;13.12;93.20;102285.19;6340293;28;20210;-74
2021/08/30 03:35:40;;;;;;;6.45;3.63;;;;;;;13.16;92.96;102291.97;6340975;28;20183;-74
2021/08/30 03:38:47;;;;;;;6.07;3.85;;;;;;;13.15;93.14;102295.72;6340802;28;20183;-73
2021/08/30 03:41:52;;;;;;;5.15;3.75;;;;;;;13.21;92.34;102292.22;6341034;28;20246;-74
2021/08/30 03:44:57;;;;;;;5.60;3.70;;;;;;;13.15;92.60;102295.72;6339532;28;20478;-74
2021/08/30 03:48:03;;;;;;;4.22;3.35;;;;;;;13.22;92.75;102302.13;6339439;28;20443;-74
2021/08/30 03:51:12;;;;;;;3.70;3.50;;;;;;;13.19;92.59;102291.56;6340427;28;20187;-74
2021/08/30 03:54:19;;;;;;;8.50;3.60;;;;;;;13.07;92.89;102287.69;6340687;28;20207;-74
2021/08/30 03:57:26;;;;;;;3.90;3.55;;;;;;;13.10;93.17;102293.59;6340314;28;20214;-74
2021/08/30 04:00:30;;;;;;;4.32;3.50;;;;;;;13.13;93.09;102292.34;6339579;28;20190;-74
2021/08/30 04:03:38;;;;;;;3.30;3.10;;;;;;;13.21;92.38;102283.97;6340256;28;20223;-74
2021/08/30 04:06:44;;;;;;;4.60;4.13;;;;;;;13.22;92.85;102301.28;6339848;28;20190;-74
2021/08/30 04:09:51;;;;;;;4.82;3.58;;;;;;;13.13;92.86;102295.09;6339982;28;20183;-74
2021/08/30 04:12:56;;;;;;;4.82;3.47;;;;;;;13.19;92.68;102297.03;6338747;28;20536;-74
2021/08/30 04:16:01;;;;;;;3.53;3.33;;;;;;;13.29;92.23;102297.53;6340311;28;20186;-74
2021/08/30 04:19:06;;;;;;;4.30;3.90;;;;;;;13.13;92.87;102298.69;6339826;28;20190;-74
2021/08/30 04:22:12;;;;;;;3.63;3.42;;;;;;;13.13;93.16;102297.84;6339804;28;20271;-74
2021/08/30 04:25:18;;;;;;;6.95;3.20;;;;;;;13.17;92.65;102297.22;6339592;28;20186;-74
2021/08/30 04:28:47;;;;;;;4.13;3.28;;;;;;;13.09;93.15;102304.75;6339869;28;20189;-74
2021/08/30 04:31:51;;;;;;;3.55;3.25;;;;;;;13.04;93.30;102293.53;6339812;28;20187;-74
2021/08/30 04:34:55;;;;;;;5.80;3.42;;;;;;;13.10;93.59;102298.22;6338353;28;20446;-74
2021/08/30 04:37:59;;;;;;;3.45;3.22;;;;;;;13.17;93.21;102304.63;6339402;28;20245;-74
2021/08/30 04:41:05;;;;;;;3.90;3.53;;;;;;;13.26;92.93;102308.91;6338204;28;20478;-74
2021/08/30 04:44:10;;;;;;;3.30;3.10;;;;;;;13.29;92.86;102308.50;6339059;28;20187;-74
2021/08/30 04:47:14;;;;;;;6.20;4.07;;;;;;;13.27;93.12;102304.28;6339346;28;20186;-74
2021/08/30 04:50:21;;;;;;;5.10;3.58;;;;;;;13.28;93.15;102301.31;6338047;28;20205;-74
2021/08/30 04:53:32;;;;;;;3.72;3.53;;;;;;;13.41;92.68;102295.94;6337867;28;20559;-74
2021/08/30 04:56:37;;;;;;;4.20;3.33;;;;;;;13.43;92.42;102299.31;6338793;28;20183;-75
2021/08/30 04:59:41;;;;;;;3.65;3.50;;;;;;;13.40;93.49;102310.72;6339017;28;20221;-74
2021/08/30 05:02:45;;;;;;;3.95;3.65;;;;;;;13.27;94.53;102310.59;6339169;28;20230;-74
2021/08/30 05:05:50;;;;;;;4.15;3.78;;;;;;;13.11;94.83;102306.25;6338375;28;20261;-74
2021/08/30 05:08:54;;;;;;;4.38;4.00;;;;;;;13.23;94.95;102320.25;6337556;28;20198;-74
2021/08/30 05:11:59;;;;;;;4.35;4.10;;;;;;;13.36;94.63;102320.38;6337545;28;20474;-74
2021/08/30 05:15:05;;;;;;;6.28;3.70;;;;;;;13.35;95.40;102313.19;6338279;28;20211;-74
2021/08/30 05:18:15;;;;;;;4.00;3.70;;;;;;;13.41;94.84;102306.91;6336661;28;20538;-74
2021/08/30 05:21:19;;;;;;;3.97;3.67;;;;;;;13.39;95.19;102314.47;6337136;28;20182;-74
2021/08/30 05:24:23;;;;;;;5.70;4.10;;;;;;;13.44;94.99;102309.25;6336975;28;20186;-74
2021/08/30 05:27:30;;;;;;;4.13;3.85;;;;;;;13.36;96.38;102314.88;6338325;28;20228;-74
2021/08/30 05:30:35;;;;;;;7.20;4.30;;;;;;;13.42;96.65;102324.22;6338017;28;20228;-74
2021/08/30 05:33:39;;;;;;;3.70;3.47;;;;;;;13.45;96.30;102319.19;6336858;28;20517;-74
2021/08/30 05:36:44;;;;;;;7.47;4.57;;;;;;;13.51;96.07;102326.59;6338058;28;20219;-73
2021/08/30 05:39:50;;;;;;;4.63;4.32;;;;;;;13.39;96.37;102325.44;6337778;28;20187;-74
2021/08/30 05:42:57;;;;;;;4.88;4.00;;;;;;;13.52;96.41;102325.53;6337212;28;20214;-73
2021/08/30 05:46:01;;;;;;;4.53;3.95;;;;;;;13.63;96.41;102321.41;6337622;28;20218;-74
2021/08/30 05:49:05;;;;;;;9.07;4.35;;;;;;;13.68;95.87;102319.75;6336480;28;20478;-74
2021/08/30 05:52:12;;;;;;;4.03;3.72;;;;;;;13.64;96.01;102323.94;6338126;28;20263;-73
2021/08/30 05:55:17;;;;;;;4.55;3.78;;;;;;;13.77;95.63;102323.16;6336924;28;20214;-73
2021/08/30 05:58:22;;;;;;;4.30;3.90;;;;;;;13.66;96.78;102321.84;6337284;28;20182;-74
2021/08/30 06:01:26;;;;;;;4.30;4.00;;;;;;;13.62;97.58;102325.19;6337173;28;20348;-74
2021/08/30 06:04:31;;;;;;;8.55;4.40;;;;;;;13.70;97.32;102317.66;6337383;28;20234;-74
2021/08/30 06:07:39;;;;;;;4.45;4.18;;;;;;;13.84;96.49;102323.22;6336250;28;20395;-73
2021/08/30 06:10:43;;;;;;;11.40;4.63;;;;;;;13.63;96.85;102338.72;6336132;28;20550;-73
2021/08/30 06:13:48;;;;;;;7.25;4.75;;;;;;;13.78;97.29;102335.84;6337128;28;20182;-73
2021/08/30 06:16:52;;;;;;;4.85;4.43;;;;;;;13.82;97.33;102343.47;6336036;28;20260;-74
2021/08/30 06:19:56;;;;;;;5.00;4.60;;;;;;;13.94;96.33;102337.41;6336173;28;20467;-74
2021/08/30 06:23:00;;;;;;;9.95;4.90;;;;;;;13.91;96.37;102346.03;6337159;28;20221;-74
2021/08/30 06:26:05;;;;;;;7.10;4.70;;;;;;;13.80;97.27;102352.94;6336328;28;20230;-73
2021/08/30 06:29:10;;;;;;;7.57;4.47;;;;;;;13.80;97.55;102352.94;6337876;28;20214;-74
2021/08/30 06:32:15;;;;;;;4.93;4.50;;;;;;;13.72;98.19;102342.13;6341113;28;20377;-74
2021/08/30 06:35:20;;;;;;;4.85;4.45;;;;;;;13.62;99.14;102337.00;6341831;28;20312;-74
2021/08/30 06:38:24;;;;;;;5.30;4.80;;;;;;;13.64;99.57;102332.16;6340982;28;20377;-74
2021/08/30 06:41:28;;;;;;;6.15;4.88;;;;;;;13.87;98.41;102333.78;6342119;28;20259;-74
2021/08/30 06:44:34;;;;;;;10.10;5.88;;;;;;;13.95;97.55;102336.34;6342162;28;20187;-74
2021/08/30 06:47:38;;;;;;;5.57;4.75;;;;;;;14.04;96.91;102335.16;6342007;28;20190;-74
2021/08/30 06:50:43;;;;;;;5.25;4.85;;;;;;;14.04;96.71;102343.38;6340985;28;20183;-74
2021/08/30 06:53:47;;;;;;;5.30;4.90;;;;;;;13.90;97.71;102349.81;6341657;28;20246;-74
2021/08/30 06:56:51;;;;;;;9.40;5.05;;;;;;;13.99;97.31;102346.75;6341461;28;20211;-75
2021/08/30 06:59:56;;;;;;;6.68;5.10;;;;;;;13.85;98.63;102341.34;6341647;28;20199;-75
2021/08/30 07:03:02;;;;;;;7.88;5.15;;;;;;;13.95;98.47;102341.84;6340381;28;20199;-74
2021/08/30 07:06:07;;;;;;;6.57;5.15;;;;;;;14.08;97.39;102347.38;6341296;28;20368;-74
2021/08/30 07:09:11;;;;;;;5.57;5.05;;;;;;;14.22;97.36;102332.69;6340298;28;20491;-75
2021/08/30 07:12:16;;;;;;;5.55;4.43;;;;;;;14.13;96.90;102343.00;6340220;28;20624;-73
2021/08/30 07:15:22;;;;;;;6.30;5.28;;;;;;;14.22;97.37;102343.66;6339990;28;20244;-73
2021/08/30 07:18:26;;;;;;;5.55;5.03;;;;;;;14.40;95.95;102342.09;6339981;28;20190;-73
2021/08/30 07:21:31;;;;;;;5.63;5.03;;;;;;;14.32;96.21;102352.41;6341153;28;20189;-74
2021/08/30 07:24:41;;;;;;;5.20;4.80;;;;;;;14.36;95.84;102340.81;6341214;28;20297;-74
2021/08/30 07:27:48;;;;;;;5.72;4.93;;;;;;;14.41;96.17;102337.44;6341009;28;20183;-73
2021/08/30 07:30:53;;;;;;;6.90;4.82;;;;;;;14.58;95.09;102355.25;6340421;28;20190;-73
2021/08/30 07:33:58;;;;;;;5.28;4.68;;;;;;;14.73;95.08;102344.94;6340697;28;20310;-73
2021/08/30 07:37:03;;;;;;;5.38;4.97;;;;;;;14.67;94.04;102347.66;6340692;28;20211;-74
2021/08/30 07:40:10;;;;;;;7.13;4.97;;;;;;;14.83;93.77;102342.63;6339356;28;20381;-73
2021/08/30 07:43:15;;;;;;;7.53;4.75;;;;;;;14.95;93.15;102340.94;6339221;28;20183;-73
2021/08/30 07:46:21;;;;;;;5.60;5.20;;;;;;;15.02;92.75;102344.53;6340804;28;20240;-74
2021/08/30 07:49:25;;;;;;;4.70;4.40;;;;;;;15.09;92.41;102347.31;6339240;28;20394;-73
2021/08/30 07:52:29;;;;;;;4.70;4.30;;;;;;;15.18;92.02;102346.03;6340398;28;20246;-73
2021/08/30 07:55:35;;;;;;;4.97;4.50;;;;;;;15.03;92.51;102343.50;6339757;28;20207;-74
2021/08/30 07:58:42;;;;;;;4.95;4.55;;;;;;;15.11;91.74;102349.84;6339170;28;20190;-73
2021/08/30 08:01:50;;;;;;;5.40;4.90;;;;;;;15.28;91.68;102340.13;6339430;28;20482;-73
2021/08/30 08:04:55;;;;;;;5.82;4.90;;;;;;;15.15;91.80;102340.94;6339966;28;20235;-73
2021/08/30 08:08:01;;;;;;;7.70;4.88;;;;;;;15.21;91.41;102348.38;6340248;28;20183;-73
2021/08/30 08:11:08;;;;;;;8.88;5.25;;;;;;;15.15;91.97;102351.13;6338896;28;20474;-73
2021/08/30 08:14:13;;;;;;;5.28;4.88;;;;;;;15.19;91.64;102341.38;6340391;28;20214;-74
2021/08/30 08:17:18;;;;;;;4.97;4.60;;;;;;;15.25;92.17;102346.03;6340062;28;20207;-74
2021/08/30 08:20:22;;;;;;;5.80;4.82;;;;;;;15.29;91.75;102339.06;6339752;28;20228;-74
2021/08/30 08:23:27;;;;;;;5.47;4.88;;;;;;;15.45;91.47;102346.88;6339633;28;20191;-74
2021/08/30 08:26:31;;;;;;;6.95;4.88;;;;;;;15.36;91.40;102348.13;6338867;28;20288;-74
2021/08/30 08:29:35;;;;;;;6.00;4.80;;;;;;;15.49;91.14;102354.53;6338358;28;20187;-74
2021/08/30 08:32:41;;;;;;;5.93;4.25;;;;;;;15.67;90.33;102353.84;6339272;28;20197;-74
2021/08/30 08:35:46;;;;;;;5.10;4.70;;;;;;;15.65;90.06;102350.47;6338707;28;20274;-74
2021/08/30 08:38:50;;;;;;;4.93;4.55;;;;;;;15.68;90.04;102351.97;6339334;28;20199;-74
2021/08/30 08:41:54;;;;;;;4.60;4.40;;;;;;;15.75;89.99;102348.13;6338949;28;20228;-74
2021/08/30 08:45:02;;;;;;;4.75;4.35;;;;;;;15.83;88.97;102356.16;6339466;28;20250;-74
2021/08/30 08:48:10;;;;;;;5.88;4.60;;;;;;;15.90;88.62;102348.72;6337961;28;20497;-74
2021/08/30 08:51:15;;;;;;;5.80;4.90;;;;;;;15.99;88.30;102355.72;6339352;28;20215;-73
2021/08/30 08:54:21;;;;;;;6.60;4.85;;;;;;;15.98;88.46;102354.00;6338210;28;20301;-73
2021/08/30 08:57:25;;;;;;;5.10;4.72;;;;;;;16.08;88.49;102354.41;6339094;28;20206;-73
2021/08/30 09:00:30;;;;;;;5.38;4.93;;;;;;;16.14;88.37;102356.28;6338637;28;20190;-74
2021/08/30 09:03:35;;;;;;;5.30;4.90;;;;;;;16.24;88.29;102353.06;6338605;28;20241;-73
2021/08/30 09:06:41;;;;;;;5.72;5.07;;;;;;;16.28;87.70;102351.56;6337840;28;20187;-74
2021/08/30 09:09:47;;;;;;;7.95;5.18;;;;;;;16.39;86.66;102350.03;6338339;28;20251;-74
2021/08/30 09:13:03;;;;;;;5.60;4.90;;;;;;;16.41;87.11;102342.41;6337770;28;20228;-74
2021/08/30 09:16:18;;;;;;;5.40;5.00;;;;;;;16.54;86.54;102339.59;6338590;28;20211;-74
2021/08/30 09:19:26;;;;;;;5.63;5.15;;;;;;;16.56;86.06;102335.56;6338206;28;20282;-74
2021/08/30 09:22:31;;;;;;;6.28;4.78;;;;;;;16.64;86.13;102326.22;6337178;28;20183;-73
2021/08/30 09:25:36;;;;;;;5.45;5.00;;;;;;;16.68;85.54;102335.72;6338384;28;20236;-73
2021/08/30 09:28:43;;;;;;;5.32;4.82;;;;;;;16.79;84.69;102324.00;6336748;28;20556;-73
2021/08/30 09:31:58;;;;;;;5.72;5.20;;;;;;;16.82;84.62;102329.03;6336942;28;20228;-73
2021/08/30 09:35:05;;;;;;;5.40;4.93;;;;;;;16.90;84.26;102334.28;6338067;28;20312;-73
2021/08/30 09:38:18;;;;;;;5.97;5.47;;;;;;;17.02;83.75;102338.03;6336979;28;20211;-74
2021/08/30 09:41:23;;;;;;;5.00;4.60;;;;;;;17.00;83.84;102336.59;6338006;28;20183;-74
2021/08/30 09:44:28;;;;;;;5.65;5.00;;;;;;;17.06;83.44;102331.00;6336584;28;20269;-74
2021/08/30 09:47:32;;;;;;;5.70;5.20;;;;;;;17.14;83.50;102330.72;6337713;28;20253;-73
2021/08/30 09:50:44;;;;;;;10.02;5.20;;;;;;;17.24;83.14;102322.78;6337717;28;20183;-75
2021/08/30 09:53:48;;;;;;;5.70;5.28;;;;;;;17.29;83.63;102330.38;6336321;28;20470;-75
2021/08/30 09:56:53;;;;;;;4.70;4.40;;;;;;;17.32;82.27;102330.78;6336824;28;20518;-75
2021/08/30 09:59:59;;;;;;;5.40;5.03;;;;;;;17.39;82.04;102328.81;6336528;28;20218;-74
2021/08/30 10:03:04;;;;;;;10.07;5.03;;;;;;;17.46;81.79;102326.81;6337052;28;20229;-75
2021/08/30 10:06:12;;;;;;;5.40;4.90;;;;;;;17.56;81.53;102328.28;6336794;28;20289;-74
2021/08/30 10:09:17;;;;;;;5.65;5.15;;;;;;;17.65;81.14;102329.66;6336337;28;20183;-75
2021/08/30 10:12:22;;;;;;;6.70;5.40;;;;;;;17.76;80.67;102320.63;6336435;28;20263;-75
2021/08/30 10:15:31;;;;;;;6.53;5.07;;;;;;;17.87;80.09;102328.16;6335822;28;20189;-75
2021/08/30 10:18:35;;;;;;;8.48;5.15;;;;;;;17.94;78.84;102323.41;6337350;28;20214;-76
2021/08/30 10:21:47;;;;;;;5.72;5.32;;;;;;;17.96;79.18;102321.25;6335788;28;20520;-74
2021/08/30 10:24:53;;;;;;;6.00;5.25;;;;;;;18.02;79.24;102315.66;6336696;28;20192;-75
2021/08/30 10:28:00;;;;;;;7.70;4.80;;;;;;;18.11;78.82;102318.94;6337293;28;20194;-74
2021/08/30 10:31:17;;;;;;;6.63;5.20;;;;;;;18.26;78.80;102322.13;6336025;28;20186;-75
2021/08/30 10:34:26;;;;;;;10.82;4.75;;;;;;;18.37;76.87;102315.84;6336654;28;20191;-74
2021/08/30 10:37:32;;;;;;;5.50;5.10;;;;;;;18.52;77.27;102312.69;6336708;28;20206;-73
2021/08/30 10:40:38;;;;;;;5.57;5.10;;;;;;;18.61;76.69;102325.97;6337653;28;20189;-75
2021/08/30 10:43:44;;;;;;;8.25;4.97;;;;;;;18.72;75.88;102300.25;6336954;28;20206;-73
2021/08/30 10:46:50;;;;;;;5.38;4.75;;;;;;;18.66;75.16;102306.75;6336578;28;20187;-74
2021/08/30 10:49:54;;;;;;;5.28;4.47;;;;;;;18.74;74.72;102302.81;6336351;28;20201;-74
2021/08/30 10:53:08;;;;;;;4.68;4.28;;;;;;;18.82;72.27;102309.91;6337093;28;20252;-74
2021/08/30 10:56:24;;;;;;;8.68;4.57;;;;;;;18.94;73.54;102310.78;6336660;28;20183;-74
2021/08/30 10:59:30;;;;;;;5.22;4.80;;;;;;;18.99;72.97;102299.84;6335470;28;20466;-74
2021/08/30 11:02:38;;;;;;;5.72;4.80;;;;;;;18.99;72.21;102306.22;6335901;28;20486;-74
2021/08/30 11:05:45;;;;;;;5.03;4.45;;;;;;;18.98;71.36;102309.22;6335347;28;20266;-74
2021/08/30 11:08:50;;;;;;;6.18;4.72;;;;;;;18.99;72.82;102311.78;6335474;28;20222;-75
2021/08/30 11:12:06;;;;;;;5.82;5.03;;;;;;;18.92;72.43;102307.41;6336463;28;20214;-75
2021/08/30 11:15:13;;;;;;;5.05;4.55;;;;;;;18.83;71.63;102300.53;6336704;28;20183;-74
2021/08/30 11:18:20;;;;;;;5.20;4.70;;;;;;;18.85;71.78;102303.94;6340962;28;20210;-74
2021/08/30 11:21:35;;;;;;;4.65;4.35;;;;;;;18.97;71.44;102297.34;6341302;28;20267;-74
2021/08/30 11:24:43;;;;;;;5.13;4.72;;;;;;;19.18;71.17;102298.69;6340090;28;20213;-74
2021/08/30 11:27:47;;;;;;;4.47;4.18;;;;;;;19.22;68.96;102294.34;6340034;28;20371;-74
2021/08/30 11:30:52;;;;;;;6.78;5.20;;;;;;;19.34;67.80;102286.91;6340933;28;20204;-74
2021/08/30 11:33:56;;;;;;;4.40;4.20;;;;;;;19.33;65.99;102296.31;6322903;28;20205;-75
2021/08/30 11:37:02;;;;;;;4.07;3.85;;;;;;;19.29;65.36;102308.91;6340593;28;20183;-75
2021/08/30 11:40:11;;;;;;;5.30;4.72;;;;;;;19.30;66.54;102297.63;6340843;28;20230;-74
2021/08/30 11:43:17;;;;;;;4.38;4.15;;;;;;;19.26;66.61;102298.31;6340870;28;20183;-74
2021/08/30 11:46:21;;;;;;;4.65;4.20;;;;;;;19.27;66.73;102303.63;6340677;28;20221;-75
2021/08/30 11:49:26;;;;;;;4.28;3.97;;;;;;;19.43;64.70;102296.56;6340197;28;20186;-75
2021/08/30 11:52:33;;;;;;;5.32;3.80;;;;;;;19.60;64.91;102300.28;6339488;28;20183;-75
2021/08/30 11:55:39;;;;;;;4.30;4.00;;;;;;;19.69;63.77;102296.09;6340605;28;20183;-75
2021/08/30 11:58:43;;;;;;;5.38;4.03;;;;;;;19.72;60.81;102295.56;6339053;28;20476;-75
2021/08/30 12:01:51;;;;;;;5.00;4.60;;;;;;;19.63;60.62;102315.56;6339193;28;20268;-75
2021/08/30 12:05:01;;;;;;;4.60;4.20;;;;;;;19.68;62.36;102299.94;6338620;28;20427;-75
2021/08/30 12:08:06;;;;;;;5.32;4.13;;;;;;;19.71;60.98;102307.75;6339748;28;20194;-76
2021/08/30 12:11:27;;;;;;;4.63;4.30;;;;;;;19.69;60.95;102296.09;6338935;28;20410;-75
2021/08/30 12:15:03;;;;;;;4.32;4.13;;;;;;;19.74;59.17;102293.44;6338825;28;20195;-75
2021/08/30 12:18:19;;;;;;;4.25;4.05;;;;;;;19.91;59.25;102294.34;6338654;28;20397;-75
2021/08/30 12:21:33;;;;;;;4.68;4.38;;;;;;;20.06;57.28;102298.53;6338731;28;20183;-74
2021/08/30 12:24:38;;;;;;;5.22;4.80;;;;;;;20.06;58.17;102292.97;6339517;28;20251;-74
2021/08/30 12:27:45;;;;;;;5.78;3.97;;;;;;;20.05;59.46;102305.16;6338301;28;20334;-74
2021/08/30 12:30:51;;;;;;;4.20;4.00;;;;;;;19.97;60.18;102301.69;6338457;28;20413;-74
2021/08/30 12:34:02;;;;;;;4.25;3.90;;;;;;;19.99;59.64;102302.28;6338616;28;20190;-74
2021/08/30 12:37:07;;;;;;;4.45;4.05;;;;;;;20.09;58.54;102306.34;6339429;28;20189;-74
2021/08/30 12:40:13;;;;;;;4.82;4.40;;;;;;;20.24;58.92;102287.28;6339422;28;20256;-75
2021/08/30 12:43:19;;;;;;;7.85;4.43;;;;;;;20.37;58.69;102289.78;6339494;28;20263;-75
2021/08/30 12:46:24;;;;;;;4.40;4.10;;;;;;;20.20;57.11;102291.63;6339356;28;20214;-75
2021/08/30 12:49:28;;;;;;;4.15;3.60;;;;;;;20.07;58.05;102292.75;6338117;28;20493;-75
2021/08/30 12:52:35;;;;;;;4.18;3.88;;;;;;;20.02;57.70;102294.56;6330098;28;20271;-75
2021/08/30 12:55:40;;;;;;;4.25;3.95;;;;;;;19.97;58.31;102298.94;6288773;28;20184;-74
2021/08/30 12:58:46;;;;;;;4.45;4.10;;;;;;;19.80;58.40;102292.44;6287875;28;20399;-75
2021/08/30 13:01:50;;;;;;;4.32;3.92;;;;;;;19.76;60.06;102291.25;6287901;28;20417;-75
2021/08/30 13:04:55;;;;;;;3.97;3.78;;;;;;;19.88;59.86;102294.84;6304207;28;20234;-75
2021/08/30 13:07:59;;;;;;;5.05;4.65;;;;;;;19.90;59.18;102292.66;6313581;28;20194;-75
2021/08/30 13:11:03;;;;;;;4.40;4.10;;;;;;;19.98;59.85;102292.28;6313406;28;20188;-75
2021/08/30 13:14:08;;;;;;;4.10;3.97;;;;;;;20.07;60.17;102286.38;6312183;28;20475;-74
2021/08/30 13:17:13;;;;;;;4.80;4.40;;;;;;;20.22;59.67;102289.44;6311910;28;20490;-74
2021/08/30 13:20:18;;;;;;;8.25;4.53;;;;;;;20.31;58.87;102282.47;6312377;28;20534;-74
2021/08/30 13:23:22;;;;;;;4.75;4.05;;;;;;;20.33;57.96;102296.94;6311740;28;20271;-75
2021/08/30 13:26:41;;;;;;;4.38;4.05;;;;;;;20.39;58.51;102295.94;6312857;28;20219;-75
2021/08/30 13:29:46;;;;;;;4.38;4.18;;;;;;;20.38;58.60;102294.25;6312595;28;20187;-75
2021/08/30 13:32:50;;;;;;;5.03;4.53;;;;;;;20.33;59.51;102294.16;6311593;28;20526;-76
2021/08/30 13:35:55;;;;;;;4.75;4.13;;;;;;;20.30;59.13;102295.50;6311197;28;20184;-75
2021/08/30 13:38:59;;;;;;;4.15;3.92;;;;;;;20.33;59.13;102291.38;6310679;28;20207;-75
2021/08/30 13:42:04;;;;;;;4.70;4.40;;;;;;;20.33;59.46;102283.06;6312461;28;20198;-75
2021/08/30 13:45:12;;;;;;;8.85;4.25;;;;;;;20.42;59.10;102284.34;6312061;28;20229;-75
2021/08/30 13:48:19;;;;;;;4.28;3.88;;;;;;;20.21;59.18;102276.69;6312065;28;20189;-75
2021/08/30 13:51:25;;;;;;;8.90;4.05;;;;;;;20.14;59.28;102275.97;6311098;28;20491;-75
2021/08/30 13:54:29;;;;;;;7.90;4.40;;;;;;;20.25;59.30;102272.38;6310993;28;20250;-75
2021/08/30 13:57:33;;;;;;;9.93;4.15;;;;;;;20.22;58.82;102273.66;6311719;28;20262;-75
2021/08/30 14:00:38;;;;;;;4.25;4.03;;;;;;;20.24;59.52;102270.66;6312029;28;20257;-75
2021/08/30 14:03:43;;;;;;;5.57;3.92;;;;;;;20.17;58.94;102281.03;6311164;28;20394;-75
2021/08/30 14:06:47;;;;;;;4.30;4.00;;;;;;;20.09;59.92;102278.66;6311334;28;20213;-74
2021/08/30 14:09:51;;;;;;;4.05;3.72;;;;;;;19.98;58.94;102272.91;6311363;28;20187;-74
2021/08/30 14:12:57;;;;;;;4.10;3.90;;;;;;;20.11;58.36;102282.84;6310825;28;20470;-75
2021/08/30 14:16:04;;;;;;;4.40;3.90;;;;;;;19.99;58.86;102280.13;6311573;28;20183;-75
2021/08/30 14:19:10;;;;;;;4.43;4.13;;;;;;;20.05;59.58;102272.78;6312039;28;20211;-75
2021/08/30 14:22:15;;;;;;;4.00;3.70;;;;;;;20.19;59.98;102278.84;6310817;28;20425;-75
2021/08/30 14:25:20;;;;;;;4.07;3.88;;;;;;;20.15;58.60;102266.59;6311673;28;20194;-74
2021/08/30 14:28:24;;;;;;;3.97;3.65;;;;;;;20.18;58.79;102274.41;6311594;28;20184;-74